Time;durP1;ratioP1;P1;durP2;ratioP2;P2;SDS_P1;SDS_P2;PMS_P1;PMS_P2;Temp;Humidity;BMP_temperature;BMP_pressure;BME280_temperature;BME280_humidity;BME280_pressure;Samples;Min_cycle;Max_cycle;Signal;HPM_P1;HPM_P2
2024/04/01 00:01:02;;;;;;;10.23;5.07;;;;;;;11.81;100.00;98694.50;5203819;28;20479;-69
2024/04/01 00:03:33;;;;;;;13.98;5.63;;;;;;;11.73;100.00;98685.53;5204603;28;20256;-72
2024/04/01 00:06:03;;;;;;;10.20;4.57;;;;;;;11.57;100.00;98675.31;5207579;28;20068;-71
2024/04/01 00:08:34;;;;;;;13.07;5.32;;;;;;;11.59;100.00;98665.56;5208436;28;20162;-71
2024/04/01 00:11:04;;;;;;;12.77;5.50;;;;;;;11.55;100.00;98666.72;5208445;28;20484;-72
2024/04/01 00:13:34;;;;;;;12.25;5.68;;;;;;;11.58;100.00;98663.91;5207721;28;20040;-71
2024/04/01 00:16:05;;;;;;;12.32;5.72;;;;;;;11.63;100.00;98668.81;5210087;28;20044;-72
2024/04/01 00:18:35;;;;;;;13.65;5.32;;;;;;;11.66;100.00;98677.31;5210989;28;20033;-71
2024/04/01 00:21:06;;;;;;;13.27;5.07;;;;;;;11.68;100.00;98683.25;5211953;28;20476;-72
2024/04/01 00:23:36;;;;;;;8.93;4.80;;;;;;;11.68;100.00;98685.88;5211415;28;20033;-72
2024/04/01 00:26:06;;;;;;;16.55;5.68;;;;;;;11.70;100.00;98690.97;5206833;28;20039;-73
2024/04/01 00:28:37;;;;;;;12.73;5.82;;;;;;;11.55;100.00;98697.25;5209168;28;20028;-71
2024/04/01 00:31:07;;;;;;;10.85;4.78;;;;;;;11.39;99.79;98702.72;5209138;28;20029;-72
2024/04/01 00:33:38;;;;;;;13.43;5.22;;;;;;;11.23;100.00;98699.47;5213787;28;20029;-72
2024/04/01 00:36:08;;;;;;;11.63;5.00;;;;;;;11.14;100.00;98700.06;5209991;28;20025;-72
2024/04/01 00:38:38;;;;;;;16.13;5.32;;;;;;;11.04;100.00;98700.81;5208144;28;20044;-72
2024/04/01 00:41:08;;;;;;;9.38;4.75;;;;;;;10.94;100.00;98699.75;5207522;28;20429;-70
2024/04/01 00:43:39;;;;;;;9.75;4.97;;;;;;;10.85;100.00;98702.16;5208156;28;20028;-71
2024/04/01 00:46:09;;;;;;;12.30;5.13;;;;;;;10.91;100.00;98699.13;5209815;28;20036;-71
2024/04/01 00:48:39;;;;;;;12.20;4.72;;;;;;;10.87;100.00;98692.44;5211239;28;20035;-71
2024/04/01 00:51:10;;;;;;;9.95;4.68;;;;;;;10.94;100.00;98689.31;5207565;28;20227;-70
2024/04/01 00:53:42;;;;;;;14.00;4.63;;;;;;;10.82;100.00;98689.31;5210100;28;20033;-70
2024/04/01 00:56:17;;;;;;;12.75;5.22;;;;;;;10.76;100.00;98685.31;5204558;28;20036;-72
2024/04/01 00:58:47;;;;;;;10.95;4.75;;;;;;;10.79;100.00;98681.63;5209586;28;20191;-73
2024/04/01 01:01:17;;;;;;;8.73;4.47;;;;;;;10.66;100.00;98683.41;5201638;28;20787;-73
2024/04/01 01:03:49;;;;;;;10.45;4.90;;;;;;;10.70;100.00;98677.03;5209827;28;20476;-72
2024/04/01 01:06:20;;;;;;;14.98;4.93;;;;;;;10.62;100.00;98677.53;5205608;28;20287;-72
2024/04/01 01:08:50;;;;;;;12.48;5.43;;;;;;;10.60;100.00;98668.13;5210725;28;20280;-72
2024/04/01 01:11:21;;;;;;;9.52;4.82;;;;;;;10.64;100.00;98669.59;5205636;28;20042;-72
2024/04/01 01:13:51;;;;;;;9.55;5.07;;;;;;;10.63;100.00;98662.69;5206808;28;20116;-72
2024/04/01 01:16:22;;;;;;;8.82;4.55;;;;;;;10.63;100.00;98660.06;5207691;28;20069;-73
2024/04/01 01:18:53;;;;;;;11.48;5.07;;;;;;;10.55;100.00;98655.38;5209799;28;20021;-72
2024/04/01 01:21:23;;;;;;;10.52;4.53;;;;;;;10.52;100.00;98655.56;5206764;28;20032;-70
2024/04/01 01:23:53;;;;;;;9.45;4.10;;;;;;;10.42;100.00;98656.28;5204137;28;20021;-72
2024/04/01 01:26:24;;;;;;;10.48;4.50;;;;;;;10.35;100.00;98652.41;5209451;28;20037;-72
2024/04/01 01:28:54;;;;;;;8.65;4.60;;;;;;;10.51;100.00;98643.44;5206762;28;20430;-73
2024/04/01 01:31:24;;;;;;;11.32;5.07;;;;;;;10.62;100.00;98640.13;5208424;28;20041;-71
2024/04/01 01:33:57;;;;;;;9.10;4.88;;;;;;;10.61;100.00;98634.09;5208542;28;20353;-71
2024/04/01 01:36:27;;;;;;;12.52;5.38;;;;;;;10.67;100.00;98628.44;5208876;28;20037;-69
2024/04/01 01:38:58;;;;;;;13.18;5.22;;;;;;;10.69;100.00;98628.34;5209955;28;20025;-70
2024/04/01 01:41:28;;;;;;;9.40;4.93;;;;;;;10.66;100.00;98625.94;5208758;28;20052;-73
2024/04/01 01:43:58;;;;;;;9.75;4.57;;;;;;;10.86;100.00;98618.41;5209622;28;20115;-73
2024/04/01 01:46:28;;;;;;;9.18;4.22;;;;;;;10.64;100.00;98619.97;5207266;28;20032;-72
2024/04/01 01:48:59;;;;;;;13.80;4.40;;;;;;;10.70;100.00;98622.19;5207322;28;20043;-70
2024/04/01 01:51:31;;;;;;;9.48;4.32;;;;;;;10.85;100.00;98621.97;5210352;28;20084;-71
2024/04/01 01:54:01;;;;;;;8.82;4.05;;;;;;;10.79;100.00;98630.25;5204060;28;20143;-70
2024/04/01 01:56:31;;;;;;;7.20;3.78;;;;;;;10.74;99.98;98629.72;5204957;28;20242;-71
2024/04/01 01:59:02;;;;;;;7.80;3.97;;;;;;;10.50;100.00;98631.34;5207541;28;20331;-72
2024/04/01 02:01:33;;;;;;;9.02;4.20;;;;;;;10.38;100.00;98628.69;5203154;28;20070;-73
2024/04/01 02:04:03;;;;;;;9.30;4.30;;;;;;;10.26;100.00;98626.88;5200432;28;20112;-72
2024/04/01 02:06:34;;;;;;;8.82;3.92;;;;;;;10.31;100.00;98619.63;5207779;28;20561;-73
2024/04/01 02:09:04;;;;;;;9.43;4.82;;;;;;;10.35;100.00;98621.06;5206272;28;20112;-72
2024/04/01 02:11:34;;;;;;;9.07;4.65;;;;;;;10.35;100.00;98615.84;5208167;28;20411;-73
2024/04/01 02:14:05;;;;;;;8.23;4.57;;;;;;;10.27;100.00;98618.97;5204854;28;20021;-72
2024/04/01 02:16:35;;;;;;;10.13;4.70;;;;;;;10.23;100.00;98617.50;5208537;28;20132;-73
2024/04/01 02:19:05;;;;;;;8.63;4.80;;;;;;;10.39;100.00;98626.00;5202906;28;20413;-71
2024/04/01 02:21:36;;;;;;;12.20;4.30;;;;;;;10.54;100.00;98614.50;5209353;28;20021;-71
2024/04/01 02:24:07;;;;;;;7.65;4.30;;;;;;;10.26;100.00;98616.44;5200084;28;20395;-73
2024/04/01 02:26:37;;;;;;;8.90;4.72;;;;;;;10.40;100.00;98613.78;5209120;28;20033;-72
2024/04/01 02:29:08;;;;;;;8.52;4.40;;;;;;;10.55;100.00;98610.16;5204652;28;20063;-73
2024/04/01 02:31:38;;;;;;;7.47;4.28;;;;;;;10.56;100.00;98610.06;5212381;28;20111;-71
2024/04/01 02:34:08;;;;;;;9.15;4.18;;;;;;;10.35;100.00;98610.63;5203592;28;20246;-72
2024/04/01 02:36:39;;;;;;;9.20;4.35;;;;;;;10.38;100.00;98599.97;5207325;28;20063;-71
2024/04/01 02:39:16;;;;;;;8.57;4.80;;;;;;;10.42;100.00;98604.91;5202283;28;20028;-68
2024/04/01 02:41:48;;;;;;;7.30;4.28;;;;;;;10.33;100.00;98596.84;5207352;28;20110;-72
2024/04/01 02:44:18;;;;;;;9.13;4.40;;;;;;;10.35;100.00;98585.34;5207993;28;20407;-72
2024/04/01 02:46:49;;;;;;;7.63;3.90;;;;;;;10.36;100.00;98565.31;5208945;28;20028;-73
2024/04/01 02:49:19;;;;;;;7.20;3.92;;;;;;;10.28;100.00;98557.97;5201286;28;20384;-71
2024/04/01 02:51:49;;;;;;;8.18;4.47;;;;;;;10.34;100.00;98560.19;5209290;28;20118;-72
2024/04/01 02:54:20;;;;;;;8.48;4.28;;;;;;;10.32;100.00;98558.63;5205268;28;20033;-72
2024/04/01 02:56:50;;;;;;;9.38;4.00;;;;;;;10.30;100.00;98553.50;5209472;28;20392;-71
2024/04/01 02:59:21;;;;;;;8.80;4.45;;;;;;;10.35;100.00;98553.19;5205316;28;20234;-71
2024/04/01 03:01:51;;;;;;;8.18;4.22;;;;;;;10.46;100.00;98542.84;5207102;28;20339;-72
2024/04/01 03:04:21;;;;;;;9.65;4.78;;;;;;;10.56;100.00;98536.94;5211017;28;20654;-71
2024/04/01 03:06:52;;;;;;;10.43;4.95;;;;;;;10.53;100.00;98531.06;5211403;28;20021;-71
2024/04/01 03:09:23;;;;;;;10.32;5.55;;;;;;;10.66;100.00;98534.53;5212470;28;20029;-71
2024/04/01 03:11:53;;;;;;;8.65;4.28;;;;;;;10.69;100.00;98531.69;5210308;28;20122;-72
2024/04/01 03:14:23;;;;;;;8.52;4.45;;;;;;;10.60;100.00;98529.69;5207080;28;20400;-71
2024/04/01 03:16:54;;;;;;;8.68;4.35;;;;;;;10.52;100.00;98525.00;5208585;28;20028;-71
2024/04/01 03:19:24;;;;;;;9.48;4.40;;;;;;;10.42;100.00;98523.97;5214280;28;20028;-72
2024/04/01 03:21:54;;;;;;;9.07;4.15;;;;;;;10.37;100.00;98509.53;5213194;28;20432;-71
2024/04/01 03:24:24;;;;;;;9.02;4.13;;;;;;;10.41;100.00;98500.56;5210822;28;20033;-72
2024/04/01 03:26:55;;;;;;;8.30;4.25;;;;;;;10.46;100.00;98490.63;5210689;28;20020;-72
2024/04/01 03:29:25;;;;;;;10.63;4.60;;;;;;;10.32;100.00;98469.88;5210017;28;20164;-71
2024/04/01 03:31:55;;;;;;;8.10;4.00;;;;;;;10.28;100.00;98464.00;5210942;28;20037;-72
2024/04/01 03:34:26;;;;;;;7.85;3.60;;;;;;;10.28;100.00;98463.16;5213314;28;20060;-73
2024/04/01 03:36:58;;;;;;;8.88;4.40;;;;;;;10.37;100.00;98454.72;5211450;28;20050;-73
2024/04/01 03:39:30;;;;;;;7.47;4.18;;;;;;;10.49;100.00;98435.59;5214038;28;20039;-71
2024/04/01 03:42:00;;;;;;;8.18;4.50;;;;;;;10.49;100.00;98430.38;5215853;28;20490;-71
2024/04/01 03:44:31;;;;;;;6.10;3.58;;;;;;;10.26;100.00;98433.72;5213905;28;20029;-72
2024/04/01 03:47:01;;;;;;;9.68;4.65;;;;;;;10.24;100.00;98433.00;5214886;28;20430;-71
2024/04/01 03:49:31;;;;;;;9.43;4.50;;;;;;;10.19;100.00;98442.91;5213164;28;20036;-70
2024/04/01 03:52:02;;;;;;;8.85;4.35;;;;;;;10.25;100.00;98455.53;5214734;28;20080;-70
2024/04/01 03:54:34;;;;;;;9.00;5.18;;;;;;;10.27;100.00;98466.72;5214338;28;20642;-71
2024/04/01 03:57:04;;;;;;;11.27;5.18;;;;;;;10.35;100.00;98469.66;5216694;28;20427;-73
2024/04/01 03:59:34;;;;;;;13.13;5.72;;;;;;;10.53;100.00;98477.03;5216347;28;20254;-73
2024/04/01 04:02:06;;;;;;;8.52;4.40;;;;;;;10.72;100.00;98476.63;5216693;28;20447;-72
2024/04/01 04:04:37;;;;;;;10.30;5.10;;;;;;;10.69;100.00;98490.72;5205309;28;20040;-73
2024/04/01 04:07:07;;;;;;;9.25;4.72;;;;;;;10.73;100.00;98497.44;5212612;28;20309;-71
2024/04/01 04:09:37;;;;;;;9.90;5.03;;;;;;;10.82;100.00;98501.19;5209313;28;20671;-71
2024/04/01 04:12:09;;;;;;;11.85;5.53;;;;;;;10.84;100.00;98492.28;5212806;28;20037;-72
2024/04/01 04:14:40;;;;;;;8.98;4.60;;;;;;;11.00;100.00;98486.81;5212520;28;20028;-72
2024/04/01 04:17:10;;;;;;;8.10;4.85;;;;;;;11.05;100.00;98483.78;5206914;28;20407;-70
2024/04/01 04:19:40;;;;;;;8.55;4.78;;;;;;;11.09;100.00;98487.81;5213718;28;20053;-71
2024/04/01 04:22:11;;;;;;;9.10;4.63;;;;;;;11.13;100.00;98491.88;5207910;28;20029;-71
2024/04/01 04:24:42;;;;;;;8.88;4.25;;;;;;;11.17;100.00;98493.38;5212760;28;20472;-73
2024/04/01 04:27:12;;;;;;;9.15;4.72;;;;;;;11.28;100.00;98485.56;5206785;28;20049;-71
2024/04/01 04:29:43;;;;;;;9.88;4.07;;;;;;;11.33;100.00;98469.56;5212462;28;20155;-70
2024/04/01 04:32:13;;;;;;;7.50;4.18;;;;;;;11.37;100.00;98471.84;5207893;28;20428;-71
2024/04/01 04:34:43;;;;;;;7.82;4.10;;;;;;;11.37;100.00;98464.00;5212618;28;20029;-72
2024/04/01 04:37:15;;;;;;;8.70;4.35;;;;;;;11.19;100.00;98452.25;5211547;28;20028;-72
2024/04/01 04:39:46;;;;;;;9.05;4.32;;;;;;;11.20;100.00;98445.22;5204330;28;20032;-72
2024/04/01 04:42:16;;;;;;;8.68;4.60;;;;;;;11.17;100.00;98440.22;5214852;28;20021;-73
2024/04/01 04:44:46;;;;;;;10.65;4.90;;;;;;;11.07;100.00;98437.44;5208273;28;20056;-72
2024/04/01 04:47:16;;;;;;;8.88;4.50;;;;;;;11.14;100.00;98428.19;5205665;28;20074;-73
2024/04/01 04:49:47;;;;;;;9.80;4.50;;;;;;;11.13;100.00;98429.16;5214514;28;20184;-72
2024/04/01 04:52:17;;;;;;;9.30;4.70;;;;;;;11.05;100.00;98431.50;5215379;28;20526;-70
2024/04/01 04:54:48;;;;;;;9.18;4.68;;;;;;;11.19;100.00;98444.41;5207466;28;20032;-71
2024/04/01 04:57:18;;;;;;;9.35;4.57;;;;;;;11.11;100.00;98428.44;5214629;28;20079;-72
2024/04/01 04:59:48;;;;;;;9.88;5.53;;;;;;;11.19;100.00;98407.81;5214960;28;20439;-70
2024/04/01 05:02:18;;;;;;;9.20;5.05;;;;;;;11.20;100.00;98416.47;5233026;22;20064;-74
2024/04/01 05:04:49;;;;;;;6.78;4.22;;;;;;;11.17;100.00;98424.53;5217810;28;20044;-74
2024/04/01 05:07:20;;;;;;;9.77;4.95;;;;;;;11.19;100.00;98418.28;5223460;28;20020;-74
2024/04/01 05:09:50;;;;;;;9.07;5.10;;;;;;;11.25;100.00;98417.00;5223396;28;20035;-73
2024/04/01 05:12:20;;;;;;;9.20;4.88;;;;;;;11.34;100.00;98424.16;5216234;28;20115;-74
2024/04/01 05:14:51;;;;;;;9.43;5.18;;;;;;;11.44;100.00;98433.84;5216758;28;20032;-73
2024/04/01 05:17:21;;;;;;;10.55;4.82;;;;;;;11.62;100.00;98448.22;5215339;28;20055;-74
2024/04/01 05:19:51;;;;;;;11.32;4.70;;;;;;;11.52;100.00;98455.06;5215010;28;20047;-73
2024/04/01 05:22:21;;;;;;;8.60;4.40;;;;;;;11.20;100.00;98448.69;5218245;28;20037;-73
2024/04/01 05:24:52;;;;;;;10.00;4.60;;;;;;;11.17;100.00;98435.84;5216833;28;20427;-74
2024/04/01 05:27:23;;;;;;;8.70;4.47;;;;;;;11.24;100.00;98426.59;5215462;28;20040;-73
2024/04/01 05:30:03;;;;;;;10.05;4.97;;;;;;;11.14;100.00;98430.81;5215637;28;20044;-74
2024/04/01 05:32:33;;;;;;;12.98;4.70;;;;;;;11.27;100.00;98436.84;5218726;28;20043;-74
2024/04/01 05:35:10;;;;;;;9.23;4.30;;;;;;;11.28;100.00;98448.97;5216117;28;20108;-74
2024/04/01 05:37:41;;;;;;;9.00;5.20;;;;;;;11.27;100.00;98449.09;5216178;28;20025;-74
2024/04/01 05:40:12;;;;;;;11.90;4.97;;;;;;;11.49;100.00;98459.66;5215956;28;20581;-71
2024/04/01 05:42:42;;;;;;;7.82;4.53;;;;;;;11.49;100.00;98470.97;5218465;28;20027;-71
2024/04/01 05:45:12;;;;;;;9.98;4.72;;;;;;;11.37;100.00;98457.94;5216978;28;20016;-72
2024/04/01 05:47:43;;;;;;;7.78;4.07;;;;;;;11.38;100.00;98438.66;5220045;28;20037;-72
2024/04/01 05:50:13;;;;;;;9.38;5.20;;;;;;;11.51;100.00;98469.06;5222976;28;20029;-73
2024/04/01 05:52:45;;;;;;;7.88;4.85;;;;;;;11.38;100.00;98460.44;5223694;28;20047;-72
2024/04/01 05:55:15;;;;;;;7.57;4.68;;;;;;;11.52;100.00;98462.03;5217803;28;20399;-74
2024/04/01 05:57:45;;;;;;;7.65;4.88;;;;;;;11.44;100.00;98460.00;5216497;28;20024;-72
2024/04/01 06:00:16;;;;;;;9.82;4.68;;;;;;;11.51;100.00;98463.84;5217056;28;20082;-74
2024/04/01 06:02:49;;;;;;;9.63;4.82;;;;;;;11.61;100.00;98474.50;5216832;28;20104;-74
2024/04/01 06:05:19;;;;;;;10.68;5.22;;;;;;;11.54;100.00;98429.59;5217765;28;20211;-74
2024/04/01 06:07:49;;;;;;;11.48;4.82;;;;;;;11.62;100.00;98414.19;5216856;28;20025;-73
2024/04/01 06:10:20;;;;;;;9.13;5.25;;;;;;;11.76;100.00;98445.41;5214633;28;20213;-73
2024/04/01 06:12:52;;;;;;;9.50;4.75;;;;;;;11.74;100.00;98441.22;5218387;28;20044;-74
2024/04/01 06:15:23;;;;;;;8.30;4.65;;;;;;;11.80;100.00;98475.63;5220035;28;20028;-70
2024/04/01 06:17:53;;;;;;;9.55;4.95;;;;;;;11.74;100.00;98464.78;5214257;28;20029;-74
2024/04/01 06:20:23;;;;;;;8.40;4.35;;;;;;;11.71;100.00;98451.94;5213472;28;20167;-72
2024/04/01 06:22:54;;;;;;;10.45;4.68;;;;;;;11.66;100.00;98418.28;5215494;28;20017;-73
2024/04/01 06:25:24;;;;;;;8.38;4.68;;;;;;;11.72;100.00;98443.97;5218913;28;20033;-73
2024/04/01 06:27:54;;;;;;;8.23;4.57;;;;;;;11.63;100.00;98423.72;5221105;28;20484;-71
2024/04/01 06:30:25;;;;;;;11.40;5.05;;;;;;;11.73;100.00;98424.72;5212396;28;20067;-73
2024/04/01 06:32:55;;;;;;;9.20;5.18;;;;;;;11.85;100.00;98443.91;5216963;28;20419;-74
2024/04/01 06:35:25;;;;;;;9.40;5.10;;;;;;;11.83;100.00;98441.41;5221932;28;20396;-74
2024/04/01 06:37:55;;;;;;;10.38;4.90;;;;;;;11.76;100.00;98440.19;5215312;28;20115;-72
2024/04/01 06:40:26;;;;;;;10.55;4.93;;;;;;;11.87;100.00;98432.38;5225565;28;20048;-73
2024/04/01 06:42:56;;;;;;;7.72;4.82;;;;;;;11.85;100.00;98443.91;5219849;28;20040;-74
2024/04/01 06:45:26;;;;;;;6.68;4.35;;;;;;;11.90;100.00;98467.94;5221023;28;20033;-74
2024/04/01 06:47:57;;;;;;;9.00;5.10;;;;;;;11.75;100.00;98448.16;5222535;28;20065;-74
2024/04/01 06:50:27;;;;;;;9.60;4.45;;;;;;;11.74;100.00;98447.31;5216618;28;20451;-73
2024/04/01 06:52:57;;;;;;;10.07;4.78;;;;;;;11.95;100.00;98442.28;5221950;28;20031;-73
2024/04/01 06:55:28;;;;;;;8.65;4.60;;;;;;;11.97;100.00;98425.50;5221317;28;20032;-72
2024/04/01 06:57:58;;;;;;;8.95;4.70;;;;;;;12.03;100.00;98425.03;5223571;28;20115;-73
2024/04/01 07:00:28;;;;;;;8.10;4.85;;;;;;;11.94;100.00;98412.63;5220792;28;20043;-73
2024/04/01 07:02:58;;;;;;;8.77;4.50;;;;;;;11.89;100.00;98396.44;5223216;28;20074;-74
2024/04/01 07:05:29;;;;;;;11.77;5.00;;;;;;;11.88;100.00;98392.16;5221422;28;20095;-73
2024/04/01 07:08:00;;;;;;;11.02;4.82;;;;;;;11.86;100.00;98393.22;5221640;28;20047;-73
2024/04/01 07:10:31;;;;;;;9.40;5.13;;;;;;;11.92;100.00;98398.84;5223290;28;20511;-73
2024/04/01 07:13:01;;;;;;;9.77;4.82;;;;;;;11.67;100.00;98392.94;5225902;28;20832;-73
2024/04/01 07:15:31;;;;;;;10.02;4.65;;;;;;;11.83;100.00;98398.69;5220737;28;20028;-73
2024/04/01 07:18:01;;;;;;;10.70;5.22;;;;;;;11.91;100.00;98401.56;5221179;28;20496;-74
2024/04/01 07:20:32;;;;;;;8.05;4.60;;;;;;;11.91;100.00;98405.03;5224087;28;20542;-74
2024/04/01 07:23:02;;;;;;;9.38;5.70;;;;;;;11.80;100.00;98410.22;5223232;28;20036;-73
2024/04/01 07:25:32;;;;;;;11.80;6.05;;;;;;;11.73;100.00;98418.63;5222207;28;20418;-74
2024/04/01 07:28:03;;;;;;;8.95;5.07;;;;;;;11.96;100.00;98405.50;5223112;28;20028;-74
2024/04/01 07:30:33;;;;;;;11.45;5.00;;;;;;;12.11;100.00;98403.53;5223773;28;20020;-74
2024/04/01 07:33:04;;;;;;;8.77;4.82;;;;;;;12.03;100.00;98414.56;5220608;28;20027;-74
2024/04/01 07:35:35;;;;;;;9.73;5.03;;;;;;;12.10;100.00;98401.84;5222522;28;20032;-74
2024/04/01 07:38:05;;;;;;;11.77;5.50;;;;;;;12.07;100.00;98400.28;5219666;28;20021;-74
2024/04/01 07:40:35;;;;;;;10.75;5.32;;;;;;;12.17;100.00;98396.03;5217108;28;20102;-74
2024/04/01 07:43:06;;;;;;;10.80;5.72;;;;;;;12.28;100.00;98400.44;5219050;28;20044;-74
2024/04/01 07:45:36;;;;;;;8.57;4.93;;;;;;;12.16;100.00;98410.03;5219045;28;20116;-74
2024/04/01 07:48:07;;;;;;;13.30;5.10;;;;;;;12.12;100.00;98405.19;5218834;28;20035;-74
2024/04/01 07:50:37;;;;;;;10.48;5.55;;;;;;;12.27;100.00;98388.31;5221347;28;20020;-73
2024/04/01 07:53:07;;;;;;;11.57;5.70;;;;;;;12.35;100.00;98407.72;5223800;28;20028;-74
2024/04/01 07:55:38;;;;;;;11.55;6.20;;;;;;;12.20;100.00;98414.13;5216380;28;20032;-74
2024/04/01 07:58:08;;;;;;;10.35;6.45;;;;;;;11.91;100.00;98412.88;5219984;28;20170;-74
2024/04/01 08:00:38;;;;;;;10.88;5.97;;;;;;;12.05;100.00;98410.06;5222857;28;20021;-74
2024/04/01 08:03:09;;;;;;;14.40;6.78;;;;;;;12.34;100.00;98394.72;5220233;28;20104;-74
2024/04/01 08:05:40;;;;;;;11.95;5.68;;;;;;;12.30;100.00;98399.34;5220845;28;20020;-73
2024/04/01 08:08:10;;;;;;;10.88;6.05;;;;;;;12.33;100.00;98420.06;5223123;28;20035;-73
2024/04/01 08:10:45;;;;;;;11.43;5.70;;;;;;;12.07;100.00;98436.94;5224781;28;20039;-74
2024/04/01 08:13:15;;;;;;;11.13;6.65;;;;;;;11.94;100.00;98449.28;5222172;28;20021;-73
2024/04/01 08:15:46;;;;;;;15.32;6.50;;;;;;;12.18;100.00;98402.94;5220940;28;20036;-72
2024/04/01 08:18:16;;;;;;;10.95;6.45;;;;;;;12.17;100.00;98382.09;5224294;28;20063;-74
2024/04/01 08:20:46;;;;;;;12.10;7.18;;;;;;;12.27;100.00;98410.06;5221631;28;20028;-72
2024/04/01 08:23:17;;;;;;;11.95;6.65;;;;;;;12.05;100.00;98381.25;5217271;28;20518;-72
2024/04/01 08:25:47;;;;;;;12.82;7.13;;;;;;;12.36;100.00;98380.56;5219678;28;20070;-73
2024/04/01 08:28:17;;;;;;;13.70;6.75;;;;;;;12.40;100.00;98361.03;5221525;28;20547;-71
2024/04/01 08:30:48;;;;;;;13.98;7.93;;;;;;;12.40;100.00;98368.03;5215589;28;20099;-73
2024/04/01 08:33:19;;;;;;;12.23;6.95;;;;;;;12.31;100.00;98380.06;5220322;28;20051;-71
2024/04/01 08:35:51;;;;;;;14.90;7.15;;;;;;;12.12;100.00;98364.09;5217578;28;20436;-73
2024/04/01 08:38:21;;;;;;;13.82;7.82;;;;;;;12.36;100.00;98357.00;5219275;28;20049;-74
2024/04/01 08:41:04;;;;;;;12.95;7.43;;;;;;;12.61;100.00;98343.63;5219292;28;20021;-73
2024/04/01 08:43:46;;;;;;;14.65;7.55;;;;;;;12.56;100.00;98363.28;5224086;28;20024;-74
2024/04/01 08:46:17;;;;;;;18.48;8.40;;;;;;;12.18;100.00;98374.13;5218932;28;20033;-73
2024/04/01 08:48:50;;;;;;;13.82;8.13;;;;;;;12.14;100.00;98379.72;5227507;28;20024;-73
2024/04/01 08:51:20;;;;;;;13.20;8.20;;;;;;;12.35;100.00;98378.91;5216718;28;20484;-73
2024/04/01 08:54:00;;;;;;;18.77;8.98;;;;;;;12.59;100.00;98379.59;5220480;28;20024;-74
2024/04/01 08:56:31;;;;;;;16.88;9.45;;;;;;;12.52;100.00;98383.66;5219006;28;20031;-73
2024/04/01 08:59:02;;;;;;;11.73;7.18;;;;;;;12.63;100.00;98383.63;5223408;28;20040;-73
2024/04/01 09:01:32;;;;;;;13.93;7.55;;;;;;;12.57;100.00;98386.75;5219315;28;20033;-74
2024/04/01 09:04:03;;;;;;;13.43;7.82;;;;;;;12.47;100.00;98377.94;5220317;28;20036;-73
2024/04/01 09:06:33;;;;;;;16.05;7.78;;;;;;;12.77;100.00;98378.13;5221446;28;20438;-74
2024/04/01 09:09:04;;;;;;;13.75;8.07;;;;;;;12.86;100.00;98384.44;5220197;28;20024;-71
2024/04/01 09:11:34;;;;;;;12.98;6.70;;;;;;;12.95;100.00;98391.63;5220968;28;20514;-74
2024/04/01 09:14:05;;;;;;;9.73;6.07;;;;;;;13.02;100.00;98393.59;5221803;28;20040;-74
2024/04/01 09:16:36;;;;;;;14.65;7.78;;;;;;;13.07;100.00;98396.72;5221001;28;20031;-74
2024/04/01 09:19:09;;;;;;;13.77;8.23;;;;;;;13.03;100.00;98392.69;5222199;28;20033;-73
2024/04/01 09:21:40;;;;;;;12.63;7.40;;;;;;;13.06;100.00;98387.19;5221009;28;20021;-71
2024/04/01 09:24:10;;;;;;;13.05;7.57;;;;;;;13.10;100.00;98399.06;5225998;28;20017;-72
2024/04/01 09:26:43;;;;;;;14.13;7.43;;;;;;;13.06;100.00;98398.47;5222186;28;20039;-73
2024/04/01 09:29:14;;;;;;;10.60;6.45;;;;;;;13.08;100.00;98398.38;5218845;28;20539;-74
2024/04/01 09:31:45;;;;;;;14.45;7.75;;;;;;;13.09;100.00;98400.03;5220684;28;20569;-73
2024/04/01 09:34:17;;;;;;;14.95;7.53;;;;;;;13.10;100.00;98392.03;5218433;28;20053;-73
2024/04/01 09:36:47;;;;;;;12.07;6.72;;;;;;;12.88;100.00;98394.69;5224647;28;20472;-72
2024/04/01 09:39:17;;;;;;;11.43;6.45;;;;;;;13.09;100.00;98372.00;5224288;28;20025;-74
2024/04/01 09:41:49;;;;;;;14.07;7.28;;;;;;;13.22;100.00;98353.50;5218359;28;20272;-73
2024/04/01 09:44:21;;;;;;;14.15;7.45;;;;;;;13.25;100.00;98354.06;5218389;28;20143;-71
2024/04/01 09:46:54;;;;;;;11.95;6.53;;;;;;;13.13;100.00;98372.59;5215799;28;20028;-74
2024/04/01 09:49:26;;;;;;;12.35;7.65;;;;;;;13.18;100.00;98349.44;5216444;28;20060;-74
2024/04/01 09:51:56;;;;;;;11.60;7.00;;;;;;;13.15;100.00;98334.81;5216711;28;20024;-74
2024/04/01 09:54:27;;;;;;;11.43;6.72;;;;;;;13.26;100.00;98339.19;5213625;28;20551;-74
2024/04/01 09:57:06;;;;;;;12.50;7.25;;;;;;;13.16;100.00;98346.13;5217967;28;20028;-74
2024/04/01 10:00:09;;;;;;;13.35;7.10;;;;;;;13.15;100.00;98345.31;5219308;28;20698;-74
2024/04/01 10:02:58;;;;;;;12.32;6.00;;;;;;;13.27;100.00;98327.72;5221076;28;20060;-74
2024/04/01 10:05:43;;;;;;;11.98;6.70;;;;;;;13.28;100.00;98318.91;5208797;28;20443;-74
2024/04/01 10:08:55;;;;;;;12.32;7.07;;;;;;;13.53;100.00;98324.63;5215651;28;20476;-72
2024/04/01 10:11:50;;;;;;;13.23;7.50;;;;;;;13.51;100.00;98315.19;5214995;28;20488;-74
2024/04/01 10:14:57;;;;;;;12.18;6.47;;;;;;;13.53;100.00;98314.13;5224780;28;20060;-72
2024/04/01 10:17:30;;;;;;;10.93;6.40;;;;;;;13.68;100.00;98319.88;5222346;28;20163;-74
2024/04/01 10:20:12;;;;;;;13.20;6.78;;;;;;;13.64;100.00;98319.31;5227056;28;20135;-74
2024/04/01 10:23:07;;;;;;;14.40;7.43;;;;;;;13.66;100.00;98332.28;5219009;28;20411;-72
2024/04/01 10:25:56;;;;;;;16.65;8.50;;;;;;;13.48;100.00;98339.06;5222917;28;20074;-74
2024/04/01 10:29:07;;;;;;;11.60;7.30;;;;;;;13.54;100.00;98339.41;5223001;28;20037;-72
2024/04/01 10:32:09;;;;;;;15.95;8.48;;;;;;;13.49;100.00;98345.97;5221293;28;20049;-74
2024/04/01 10:34:57;;;;;;;17.40;9.75;;;;;;;13.46;100.00;98348.88;5217863;28;20048;-73
2024/04/01 10:38:06;;;;;;;16.75;8.23;;;;;;;13.40;100.00;98339.69;5218174;28;20477;-74
2024/04/01 10:41:14;;;;;;;11.27;7.32;;;;;;;13.49;100.00;98335.50;5163511;28;20483;-72
2024/04/01 10:44:09;;;;;;;16.90;9.02;;;;;;;13.62;100.00;98330.88;5213603;28;20021;-74
2024/04/01 10:47:17;;;;;;;18.63;10.27;;;;;;;13.54;100.00;98328.09;5218233;28;20148;-72
2024/04/01 10:50:01;;;;;;;12.00;7.95;;;;;;;13.52;100.00;98333.44;5216038;28;20881;-71
2024/04/01 10:53:09;;;;;;;14.23;8.70;;;;;;;13.44;100.00;98328.00;5218385;28;20051;-74
2024/04/01 10:55:56;;;;;;;14.13;8.50;;;;;;;13.41;100.00;98332.69;5229916;28;20013;-74
2024/04/01 10:58:48;;;;;;;14.05;8.00;;;;;;;13.52;100.00;98329.97;5223134;28;20334;-74
2024/04/01 11:04:26;;;;;;;14.45;8.02;;;;;;;13.56;100.00;98313.03;5236206;22;20440;-72
2024/04/01 11:07:21;;;;;;;15.18;8.52;;;;;;;13.33;100.00;98316.72;5218825;28;20028;-72
2024/04/01 11:10:01;;;;;;;19.38;10.23;;;;;;;13.36;100.00;98304.19;5224565;28;20407;-70
2024/04/01 11:12:57;;;;;;;15.27;8.65;;;;;;;13.43;100.00;98294.03;5202523;28;20178;-72
2024/04/01 11:15:28;;;;;;;16.52;9.07;;;;;;;13.49;100.00;98288.25;5225561;28;20384;-72
2024/04/01 11:18:10;;;;;;;16.17;8.65;;;;;;;13.39;100.00;98292.63;5201880;28;20040;-71
2024/04/01 11:20:46;;;;;;;19.45;10.18;;;;;;;13.31;100.00;98288.00;5223597;28;20036;-73
2024/04/01 11:23:31;;;;;;;19.42;9.48;;;;;;;13.33;100.00;98296.59;5226408;28;20112;-72
2024/04/01 11:26:14;;;;;;;16.55;9.98;;;;;;;13.32;100.00;98317.69;5205334;28;20031;-73
2024/04/01 11:29:03;;;;;;;18.17;9.70;;;;;;;13.33;100.00;98329.84;5227822;28;20020;-71
2024/04/01 11:31:35;;;;;;;14.90;9.52;;;;;;;13.24;100.00;98330.63;5205571;28;20039;-72
2024/04/01 11:34:06;;;;;;;18.95;8.95;;;;;;;13.29;100.00;98339.78;5227123;28;20028;-73
2024/04/01 11:37:01;;;;;;;15.10;9.15;;;;;;;13.24;100.00;98341.91;5223621;28;20431;-74
2024/04/01 11:39:37;;;;;;;13.52;8.80;;;;;;;13.37;100.00;98349.63;5221304;28;20033;-72
2024/04/01 11:42:09;;;;;;;16.60;9.40;;;;;;;13.34;100.00;98352.50;5222822;28;20666;-73
2024/04/01 11:44:42;;;;;;;20.42;10.30;;;;;;;13.27;100.00;98357.41;5208907;28;20028;-72
2024/04/01 11:47:14;;;;;;;19.60;10.32;;;;;;;13.11;100.00;98369.28;5154841;28;21006;-71
2024/04/01 11:49:45;;;;;;;17.42;9.40;;;;;;;13.24;100.00;98368.16;5108474;28;21522;-72
2024/04/01 11:52:17;;;;;;;18.42;9.40;;;;;;;13.22;100.00;98374.50;5109242;28;20029;-71